createdAt,value
2023-05-13T00:00:27.467Z,11.20
2023-05-13T00:02:55.765Z,11.20
2023-05-13T00:05:25.317Z,11.20
2023-05-13T00:07:53.444Z,11.20
2023-05-13T00:10:21.835Z,11.20
2023-05-13T00:12:50.207Z,11.20
2023-05-13T00:15:18.442Z,11.10
2023-05-13T00:17:46.708Z,11.20
2023-05-13T00:20:14.870Z,11.20
2023-05-13T00:22:44.463Z,11.20
2023-05-13T00:25:12.667Z,11.20
2023-05-13T00:27:40.886Z,11.20
2023-05-13T00:30:10.185Z,11.10
2023-05-13T00:32:38.334Z,11.10
2023-05-13T00:35:07.200Z,11.10
2023-05-13T00:37:35.340Z,11.10
2023-05-13T00:40:05.405Z,11.10
2023-05-13T00:42:33.581Z,11.10
2023-05-13T00:45:01.761Z,11.10
2023-05-13T00:47:29.992Z,11.00
2023-05-13T00:49:59.036Z,11.10
2023-05-13T00:52:27.240Z,11.10
2023-05-13T00:54:55.421Z,11.10
2023-05-13T00:57:25.006Z,11.10
2023-05-13T00:59:53.711Z,11.20
2023-05-13T01:02:28.493Z,11.20
2023-05-13T01:05:16.517Z,11.10
2023-05-13T01:07:54.158Z,11.20
2023-05-13T01:10:37.796Z,11.20
2023-05-13T01:13:12.423Z,11.10
2023-05-13T01:15:46.580Z,11.10
2023-05-13T01:18:21.732Z,11.10
2023-05-13T01:20:51.005Z,11.10
2023-05-13T01:23:20.593Z,11.20
2023-05-13T01:25:50.500Z,11.20
2023-05-13T01:28:18.641Z,11.10
2023-05-13T01:30:47.897Z,11.20
2023-05-13T01:33:16.818Z,11.10
2023-05-13T01:35:45.763Z,11.10
2023-05-13T01:38:15.996Z,11.20
2023-05-13T01:40:46.353Z,11.20
2023-05-13T01:43:14.608Z,11.20
2023-05-13T01:45:43.024Z,11.10
2023-05-13T01:48:11.206Z,11.00
2023-05-13T01:50:39.428Z,11.00
2023-05-13T01:53:07.655Z,11.00
2023-05-13T01:55:35.853Z,11.00
2023-05-13T01:58:05.398Z,11.10
2023-05-13T02:00:33.857Z,11.20
2023-05-13T02:03:02.116Z,11.20
2023-05-13T02:05:31.716Z,11.30
2023-05-13T02:07:59.965Z,11.30
2023-05-13T02:10:28.167Z,11.40
2023-05-13T02:12:56.374Z,11.40
2023-05-13T02:15:26.048Z,11.30
2023-05-13T02:17:54.260Z,11.40
2023-05-13T02:20:23.085Z,11.40
2023-05-13T02:22:51.450Z,11.30
2023-05-13T02:25:19.786Z,11.40
2023-05-13T02:27:47.931Z,11.40
2023-05-13T02:30:16.392Z,11.40
2023-05-13T02:32:46.375Z,11.40
2023-05-13T02:35:15.108Z,11.40
2023-05-13T02:37:43.550Z,11.40
2023-05-13T02:40:12.430Z,11.40
2023-05-13T02:42:40.582Z,11.40
2023-05-13T02:45:10.052Z,11.40
2023-05-13T02:47:39.219Z,11.40
2023-05-13T02:50:10.181Z,11.40
2023-05-13T02:52:39.254Z,11.40
2023-05-13T02:55:09.548Z,11.40
2023-05-13T02:57:38.675Z,11.40
2023-05-13T03:00:08.702Z,11.50
2023-05-13T03:02:37.135Z,11.40
2023-05-13T03:05:05.816Z,11.40
2023-05-13T03:07:35.926Z,11.40
2023-05-13T03:10:04.228Z,11.40
2023-05-13T03:12:32.448Z,11.40
2023-05-13T03:15:01.280Z,11.40
2023-05-13T03:17:30.979Z,11.40
2023-05-13T03:19:59.183Z,11.40
2023-05-13T03:22:27.664Z,11.50
2023-05-13T03:24:58.324Z,11.50
2023-05-13T03:27:26.578Z,11.50
2023-05-13T03:29:54.800Z,11.50
2023-05-13T03:32:25.317Z,11.40
2023-05-13T03:34:53.580Z,11.40
2023-05-13T03:37:21.788Z,11.40
2023-05-13T03:39:49.924Z,11.40
2023-05-13T03:42:19.485Z,11.40
2023-05-13T03:44:47.650Z,11.50
2023-05-13T03:47:15.836Z,11.50
2023-05-13T03:49:44.025Z,11.50
2023-05-13T03:52:12.190Z,11.50
2023-05-13T03:54:40.594Z,11.50
2023-05-13T03:57:09.010Z,11.50
2023-05-13T03:59:38.528Z,11.60
2023-05-13T04:02:06.866Z,11.60
2023-05-13T04:04:35.420Z,11.60
2023-05-13T04:07:03.560Z,11.60
2023-05-13T04:09:31.729Z,11.60
2023-05-13T04:12:00.201Z,11.70
2023-05-13T04:14:28.415Z,11.60
2023-05-13T04:16:57.994Z,11.60
2023-05-13T04:19:26.158Z,11.50
2023-05-13T04:21:54.356Z,11.40
2023-05-13T04:24:22.522Z,11.40
2023-05-13T04:26:50.712Z,11.50
2023-05-13T04:29:18.884Z,11.50
2023-05-13T04:31:47.061Z,11.40
2023-05-13T04:34:16.631Z,11.50
2023-05-13T04:36:46.511Z,11.60
2023-05-13T04:39:14.688Z,11.60
2023-05-13T04:41:42.933Z,11.60
2023-05-13T04:44:11.245Z,11.60
2023-05-13T04:46:40.596Z,11.60
2023-05-13T04:49:08.835Z,11.60
2023-05-13T04:51:38.683Z,11.60
2023-05-13T04:54:09.090Z,11.70
2023-05-13T04:56:37.824Z,11.80
2023-05-13T04:59:06.289Z,11.80
2023-05-13T05:01:34.475Z,11.90
2023-05-13T05:04:02.712Z,11.90
2023-05-13T05:06:31.380Z,12.00
2023-05-13T05:09:00.920Z,12.10
2023-05-13T05:11:29.062Z,12.10
2023-05-13T05:13:57.199Z,12.10
2023-05-13T05:16:25.353Z,12.10
2023-05-13T05:18:53.599Z,12.10
2023-05-13T05:21:21.861Z,12.10
2023-05-13T05:23:50.168Z,12.20
2023-05-13T05:26:19.749Z,12.20
2023-05-13T05:28:47.913Z,12.50
2023-05-13T05:31:16.163Z,12.40
2023-05-13T05:33:44.371Z,12.40
2023-05-13T05:36:12.533Z,12.50
2023-05-13T05:38:41.729Z,12.60
2023-05-13T05:41:09.935Z,12.70
2023-05-13T05:43:39.434Z,12.70
2023-05-13T05:46:08.014Z,12.70
2023-05-13T05:48:36.194Z,12.80
2023-05-13T05:51:04.428Z,12.90
2023-05-13T05:53:32.795Z,13.00
2023-05-13T05:56:00.977Z,12.90
2023-05-13T05:58:29.152Z,12.90
2023-05-13T06:01:00.726Z,12.90
2023-05-13T06:03:29.074Z,12.90
2023-05-13T06:05:57.313Z,12.80
2023-05-13T06:08:30.151Z,12.80
2023-05-13T06:10:58.962Z,12.80
2023-05-13T06:13:27.913Z,12.90
2023-05-13T06:15:56.126Z,13.00
2023-05-13T06:18:26.845Z,13.20
2023-05-13T06:20:55.126Z,13.30
2023-05-13T06:23:23.351Z,13.40
2023-05-13T06:25:51.788Z,13.60
2023-05-13T06:28:19.963Z,13.60
2023-05-13T06:30:48.118Z,13.70
2023-05-13T06:33:16.240Z,13.60
2023-05-13T06:35:49.472Z,13.60
2023-05-13T06:38:18.295Z,13.60
2023-05-13T06:40:46.867Z,13.60
2023-05-13T06:43:16.533Z,13.60
2023-05-13T06:45:44.760Z,13.70
2023-05-13T06:48:14.313Z,13.70
2023-05-13T06:50:42.528Z,13.70
2023-05-13T06:53:12.661Z,13.70
2023-05-13T06:55:42.683Z,13.70
2023-05-13T06:58:11.217Z,13.70
2023-05-13T07:00:40.216Z,13.70
2023-05-13T07:03:09.035Z,13.70
2023-05-13T07:05:37.487Z,13.60
2023-05-13T07:08:08.618Z,13.50
2023-05-13T07:10:38.224Z,13.60
2023-05-13T07:13:06.443Z,13.50
2023-05-13T07:15:34.551Z,13.40
2023-05-13T07:18:02.814Z,13.40
2023-05-13T07:20:31.451Z,13.50
2023-05-13T07:22:59.745Z,13.60
2023-05-13T07:25:27.962Z,13.60
2023-05-13T07:27:57.786Z,13.50
2023-05-13T07:30:25.998Z,13.50
2023-05-13T07:32:54.293Z,13.50
2023-05-13T07:35:22.799Z,13.50
2023-05-13T07:37:51.111Z,13.50
2023-05-13T07:40:21.175Z,13.50
2023-05-13T07:42:49.605Z,13.40
2023-05-13T07:45:19.341Z,13.50
2023-05-13T07:47:47.674Z,13.50
2023-05-13T07:50:15.870Z,13.50
2023-05-13T07:52:44.279Z,13.60
2023-05-13T07:55:12.459Z,13.60
2023-05-13T07:57:40.608Z,13.60
2023-05-13T08:00:09.829Z,13.70
2023-05-13T08:02:40.370Z,13.70
2023-05-13T08:05:09.327Z,13.80
2023-05-13T08:07:37.565Z,14.00
2023-05-13T08:10:06.621Z,14.10
2023-05-13T08:12:34.763Z,14.30
2023-05-13T08:15:03.936Z,14.40
2023-05-13T08:17:32.187Z,14.60
2023-05-13T08:20:03.634Z,14.70
2023-05-13T08:22:31.759Z,14.80
2023-05-13T08:25:01.164Z,14.90
2023-05-13T08:27:29.417Z,14.90
2023-05-13T08:29:57.561Z,15.00
2023-05-13T08:32:25.715Z,15.10
2023-05-13T08:34:54.190Z,15.20
2023-05-13T08:37:23.733Z,15.20
2023-05-13T08:39:51.892Z,15.20
2023-05-13T08:42:22.906Z,15.30
2023-05-13T08:44:51.888Z,15.30
2023-05-13T08:47:28.811Z,15.30
2023-05-13T08:49:57.520Z,15.40
2023-05-13T08:52:27.368Z,15.40
2023-05-13T08:54:57.032Z,15.40
2023-05-13T08:57:25.315Z,15.40
2023-05-13T08:59:53.459Z,15.40
2023-05-13T09:02:21.868Z,15.40
2023-05-13T09:04:54.909Z,15.40
2023-05-13T09:07:23.272Z,15.50
2023-05-13T09:09:53.079Z,15.60
2023-05-13T09:12:43.728Z,15.70
2023-05-13T09:15:13.442Z,15.90
2023-05-13T09:17:42.947Z,16.00
2023-05-13T09:20:13.033Z,16.10
2023-05-13T09:22:47.495Z,16.30
2023-05-13T09:25:18.522Z,16.40
2023-05-13T09:27:50.913Z,16.50
2023-05-13T09:30:20.959Z,16.70
2023-05-13T09:33:07.707Z,16.90
2023-05-13T09:35:37.255Z,17.20
2023-05-13T09:38:15.014Z,17.40
2023-05-13T09:40:51.743Z,17.60
2023-05-13T09:43:23.439Z,18.00
2023-05-13T09:45:55.005Z,18.20
2023-05-13T09:48:23.983Z,18.40
2023-05-13T09:50:52.588Z,18.60
2023-05-13T09:53:21.728Z,18.70
2023-05-13T09:55:52.620Z,18.90
2023-05-13T09:58:22.032Z,19.00
2023-05-13T10:00:50.379Z,19.00
2023-05-13T10:03:18.901Z,19.00
2023-05-13T10:05:47.303Z,18.80
2023-05-13T10:08:15.933Z,19.00
2023-05-13T10:10:46.040Z,19.30
2023-05-13T10:13:17.996Z,19.70
2023-05-13T10:15:51.175Z,20.10
2023-05-13T10:18:20.552Z,20.40
2023-05-13T10:20:53.247Z,20.60
2023-05-13T10:23:22.728Z,20.50
2023-05-13T10:25:52.046Z,20.50
2023-05-13T10:28:22.468Z,20.50
2023-05-13T10:30:51.814Z,20.50
2023-05-13T10:33:21.062Z,20.40
2023-05-13T10:36:11.444Z,20.30
2023-05-13T10:38:54.619Z,20.20
2023-05-13T10:41:53.465Z,20.10
2023-05-13T10:44:24.718Z,20.10
2023-05-13T10:46:52.940Z,20.20
2023-05-13T10:49:24.797Z,20.40
2023-05-13T10:51:53.000Z,20.50
2023-05-13T10:54:22.339Z,20.60
2023-05-13T10:56:58.460Z,20.90
2023-05-13T10:59:30.638Z,21.10
2023-05-13T11:02:02.066Z,21.10
2023-05-13T11:04:30.415Z,20.80
2023-05-13T11:07:17.190Z,20.90
2023-05-13T11:09:51.729Z,20.80
2023-05-13T11:12:19.901Z,20.60
2023-05-13T11:14:49.894Z,20.30
2023-05-13T11:17:20.706Z,20.00
2023-05-13T11:19:51.347Z,19.60
2023-05-13T11:22:22.019Z,19.30
2023-05-13T11:25:06.679Z,19.20
2023-05-13T11:27:39.984Z,19.10
2023-05-13T11:30:23.329Z,18.90
2023-05-13T11:32:57.220Z,18.80
2023-05-13T11:35:26.867Z,18.70
2023-05-13T11:37:57.588Z,18.60
2023-05-13T11:40:29.448Z,18.60
2023-05-13T11:42:57.893Z,18.60
2023-05-13T11:45:28.503Z,18.50
2023-05-13T11:47:57.456Z,18.30
2023-05-13T11:50:30.840Z,18.20
2023-05-13T11:53:00.943Z,18.20
2023-05-13T11:55:31.197Z,18.30
2023-05-13T11:58:00.326Z,18.50
2023-05-13T12:00:31.572Z,18.70
2023-05-13T12:03:00.536Z,18.90
2023-05-13T12:05:28.977Z,19.10
2023-05-13T12:07:58.624Z,19.40
2023-05-13T12:10:28.054Z,19.50
2023-05-13T12:12:56.656Z,19.70
2023-05-13T12:15:25.201Z,19.80
2023-05-13T12:17:55.484Z,20.10
2023-05-13T12:20:25.093Z,20.20
2023-05-13T12:22:57.106Z,20.20
2023-05-13T12:25:51.268Z,20.40
2023-05-13T12:28:21.153Z,20.70
2023-05-13T12:30:54.013Z,21.00
2023-05-13T12:33:25.464Z,21.40
2023-05-13T12:35:54.970Z,21.70
2023-05-13T12:38:25.111Z,21.90
2023-05-13T12:40:54.755Z,22.10
2023-05-13T12:43:22.983Z,22.40
2023-05-13T12:45:56.616Z,22.60
2023-05-13T12:48:27.034Z,22.60
2023-05-13T12:50:56.489Z,22.30
2023-05-13T12:53:24.824Z,21.80
2023-05-13T12:55:53.016Z,21.60
2023-05-13T12:58:21.184Z,21.50
2023-05-13T13:00:49.401Z,21.40
2023-05-13T13:03:17.708Z,21.10
2023-05-13T13:05:48.150Z,21.00
2023-05-13T13:08:16.668Z,20.80
2023-05-13T13:10:45.690Z,20.70
2023-05-13T13:13:14.266Z,20.60
2023-05-13T13:15:42.759Z,20.40
2023-05-13T13:18:11.004Z,20.10
2023-05-13T13:20:39.179Z,19.90
2023-05-13T13:23:09.132Z,19.70
2023-05-13T13:25:37.347Z,19.70
2023-05-13T13:28:05.856Z,19.60
2023-05-13T13:30:34.011Z,19.40
2023-05-13T13:33:02.317Z,19.20
2023-05-13T13:35:30.589Z,19.10
2023-05-13T13:37:58.750Z,19.00
2023-05-13T13:40:28.322Z,19.10
2023-05-13T13:42:56.516Z,19.00
2023-05-13T13:45:24.792Z,19.00
2023-05-13T13:47:53.092Z,18.70
2023-05-13T13:50:21.695Z,18.70
2023-05-13T13:52:52.355Z,18.50
2023-05-13T13:55:20.687Z,18.40
2023-05-13T13:57:50.651Z,18.30
2023-05-13T14:00:19.320Z,18.20
2023-05-13T14:02:47.825Z,18.10
2023-05-13T14:05:16.760Z,18.00
2023-05-13T14:07:44.918Z,17.90
2023-05-13T14:10:13.170Z,17.80
2023-05-13T14:12:41.292Z,17.80
2023-05-13T14:15:11.853Z,17.70
2023-05-13T14:17:40.086Z,17.80
2023-05-13T14:20:10.488Z,18.00
2023-05-13T14:22:38.753Z,18.10
2023-05-13T14:25:09.306Z,18.40
2023-05-13T14:27:37.835Z,18.70
2023-05-13T14:30:07.624Z,19.00
2023-05-13T14:32:37.184Z,19.20
2023-05-13T14:35:05.785Z,19.30
2023-05-13T14:37:33.966Z,19.40
2023-05-13T14:40:02.178Z,19.70
2023-05-13T14:42:30.331Z,19.90
2023-05-13T14:44:58.477Z,20.10
2023-05-13T14:47:26.861Z,20.30
2023-05-13T14:49:56.400Z,20.60
2023-05-13T14:52:24.543Z,20.80
2023-05-13T14:54:52.749Z,20.80
2023-05-13T14:57:21.339Z,20.90
2023-05-13T14:59:49.510Z,21.00
2023-05-13T15:02:18.258Z,21.00
2023-05-13T15:04:46.452Z,21.10
2023-05-13T15:07:16.025Z,21.20
2023-05-13T15:09:44.173Z,21.30
2023-05-13T15:12:12.305Z,21.30
2023-05-13T15:14:40.508Z,21.30
2023-05-13T15:17:11.841Z,21.30
2023-05-13T15:19:40.084Z,21.30
2023-05-13T15:22:08.280Z,21.20
2023-05-13T15:24:38.914Z,21.00
2023-05-13T15:27:07.384Z,20.80
2023-05-13T15:29:35.593Z,20.60
2023-05-13T15:32:03.759Z,20.40
2023-05-13T15:34:31.917Z,20.30
2023-05-13T15:37:00.153Z,20.00
2023-05-13T15:39:28.316Z,19.80
2023-05-13T15:41:57.890Z,19.70
2023-05-13T15:44:26.792Z,19.70
2023-05-13T15:46:55.118Z,19.80
2023-05-13T15:49:23.394Z,19.80
2023-05-13T15:51:52.977Z,19.60
2023-05-13T15:54:21.140Z,19.40
2023-05-13T15:56:49.283Z,19.20
2023-05-13T15:59:18.839Z,19.00
2023-05-13T16:01:47.027Z,18.90
2023-05-13T16:04:15.281Z,18.80
2023-05-13T16:06:43.556Z,18.90
2023-05-13T16:09:11.686Z,18.70
2023-05-13T16:11:39.861Z,18.60
2023-05-13T16:14:08.784Z,18.40
2023-05-13T16:16:38.585Z,18.30
2023-05-13T16:19:08.513Z,18.10
2023-05-13T16:21:36.861Z,18.00
2023-05-13T16:24:07.042Z,17.90
2023-05-13T16:26:35.213Z,17.80
2023-05-13T16:29:13.465Z,17.70
2023-05-13T16:32:16.961Z,17.50
2023-05-13T16:34:59.041Z,17.40
2023-05-13T16:37:49.829Z,17.30
2023-05-13T16:40:34.988Z,17.30
2023-05-13T16:43:26.128Z,17.20
2023-05-13T16:46:04.553Z,17.10
2023-05-13T16:48:34.135Z,16.90
2023-05-13T16:51:11.367Z,16.80
2023-05-13T16:53:53.340Z,16.60
2023-05-13T16:56:38.156Z,16.70
2023-05-13T16:59:06.442Z,16.70
2023-05-13T17:01:34.645Z,16.60
2023-05-13T17:04:04.294Z,16.60
2023-05-13T17:06:32.431Z,16.50
2023-05-13T17:09:00.680Z,16.40
2023-05-13T17:11:28.919Z,16.30
2023-05-13T17:13:57.073Z,16.20
2023-05-13T17:16:25.315Z,16.10
2023-05-13T17:18:53.599Z,16.10
2023-05-13T17:21:23.382Z,16.10
2023-05-13T17:23:51.629Z,16.10
2023-05-13T17:26:20.367Z,16.00
2023-05-13T17:28:48.643Z,16.00
2023-05-13T17:31:17.053Z,16.00
2023-05-13T17:33:45.375Z,16.00
2023-05-13T17:36:13.638Z,16.00
2023-05-13T17:38:43.409Z,15.90
2023-05-13T17:41:11.705Z,15.90
2023-05-13T17:43:39.875Z,15.90
2023-05-13T17:46:08.230Z,15.80
2023-05-13T17:48:36.523Z,15.80
2023-05-13T17:51:04.957Z,15.80
2023-05-13T17:53:35.053Z,15.70
2023-05-13T17:56:05.157Z,15.60
2023-05-13T17:58:33.364Z,15.50
2023-05-13T18:01:01.690Z,15.50
2023-05-13T18:03:29.992Z,15.50
2023-05-13T18:05:58.211Z,15.50
2023-05-13T18:08:26.494Z,15.40
2023-05-13T18:10:54.720Z,15.30
2023-05-13T18:13:24.268Z,15.30
2023-05-13T18:15:52.504Z,15.40
2023-05-13T18:18:20.824Z,15.40
2023-05-13T18:20:49.012Z,15.40
2023-05-13T18:23:17.930Z,15.50
2023-05-13T18:25:55.135Z,15.50
2023-05-13T18:28:25.706Z,15.40
2023-05-13T18:30:53.895Z,15.40
2023-05-13T18:33:22.269Z,15.40
2023-05-13T18:35:50.409Z,15.30
2023-05-13T18:38:18.557Z,15.20
2023-05-13T18:40:46.724Z,15.20
2023-05-13T18:43:14.871Z,15.10
2023-05-13T18:45:44.749Z,15.10
2023-05-13T18:48:13.026Z,15.10
2023-05-13T18:50:41.173Z,14.80
2023-05-13T18:53:09.398Z,14.80
2023-05-13T18:55:37.699Z,14.80
2023-05-13T18:58:05.886Z,14.80
2023-05-13T19:00:34.110Z,14.80
2023-05-13T19:03:03.763Z,14.70
2023-05-13T19:05:32.449Z,14.70
2023-05-13T19:08:00.722Z,14.70
2023-05-13T19:10:28.933Z,14.70
2023-05-13T19:12:57.138Z,14.60
2023-05-13T19:15:25.360Z,14.60
2023-05-13T19:17:53.980Z,14.60
2023-05-13T19:20:23.886Z,14.60
2023-05-13T19:22:52.177Z,14.50
2023-05-13T19:25:20.405Z,14.50
2023-05-13T19:27:49.386Z,14.40
2023-05-13T19:30:17.706Z,14.30
2023-05-13T19:32:45.866Z,14.10
2023-05-13T19:35:14.098Z,14.10
2023-05-13T19:37:43.880Z,14.10
2023-05-13T19:40:12.589Z,14.10
2023-05-13T19:42:40.771Z,14.00
2023-05-13T19:45:10.687Z,13.90
2023-05-13T19:47:38.992Z,13.80
2023-05-13T19:50:08.502Z,13.70
2023-05-13T19:52:36.661Z,13.60
2023-05-13T19:55:07.342Z,13.50
2023-05-13T19:57:35.717Z,13.40
2023-05-13T20:00:05.548Z,13.30
2023-05-13T20:02:33.811Z,13.30
2023-05-13T20:05:02.103Z,13.20
2023-05-13T20:07:30.732Z,13.20
2023-05-13T20:09:59.191Z,13.00
2023-05-13T20:12:28.819Z,13.00
2023-05-13T20:14:58.319Z,12.90
2023-05-13T20:17:27.189Z,12.80
2023-05-13T20:19:55.797Z,12.80
2023-05-13T20:22:23.971Z,12.70
2023-05-13T20:24:54.367Z,12.70
2023-05-13T20:27:22.515Z,12.60
2023-05-13T20:29:55.255Z,12.60
2023-05-13T20:32:25.040Z,12.50
2023-05-13T20:34:54.611Z,12.50
2023-05-13T20:37:24.071Z,12.50
2023-05-13T20:39:52.676Z,12.50
2023-05-13T20:42:22.408Z,12.50
2023-05-13T20:44:52.720Z,12.50
2023-05-13T20:47:21.757Z,12.50
2023-05-13T20:49:49.934Z,12.50
2023-05-13T20:52:18.207Z,12.50
2023-05-13T20:54:46.388Z,12.60
2023-05-13T20:57:14.547Z,12.60
2023-05-13T20:59:42.740Z,12.50
2023-05-13T21:02:12.292Z,12.50
2023-05-13T21:04:40.629Z,12.50
2023-05-13T21:07:08.818Z,12.50
2023-05-13T21:09:36.953Z,12.50
2023-05-13T21:12:05.658Z,12.60
2023-05-13T21:14:33.867Z,12.60
2023-05-13T21:17:03.453Z,12.60
2023-05-13T21:19:33.034Z,12.60
2023-05-13T21:22:01.675Z,12.70
2023-05-13T21:24:29.833Z,12.70
2023-05-13T21:26:58.035Z,12.70
2023-05-13T21:29:26.158Z,12.70
2023-05-13T21:31:54.610Z,12.70
2023-05-13T21:34:22.820Z,12.60
2023-05-13T21:36:53.319Z,12.50
2023-05-13T21:39:21.476Z,12.50
2023-05-13T21:41:49.789Z,12.50
2023-05-13T21:44:17.959Z,12.50
2023-05-13T21:46:46.095Z,12.50
2023-05-13T21:49:14.297Z,12.40
2023-05-13T21:51:42.528Z,12.40
2023-05-13T21:54:12.075Z,12.30
2023-05-13T21:56:40.250Z,12.30
2023-05-13T21:59:08.374Z,12.30
2023-05-13T22:01:36.498Z,12.30
2023-05-13T22:04:04.795Z,12.30
2023-05-13T22:06:33.596Z,12.30
2023-05-13T22:09:02.416Z,12.20
2023-05-13T22:11:31.968Z,12.10
2023-05-13T22:14:00.612Z,12.10
2023-05-13T22:16:28.845Z,12.10
2023-05-13T22:18:59.774Z,12.00
2023-05-13T22:21:28.048Z,12.10
2023-05-13T22:23:56.374Z,12.10
2023-05-13T22:26:24.553Z,12.20
2023-05-13T22:28:54.248Z,12.20
2023-05-13T22:31:22.649Z,12.20
2023-05-13T22:33:50.812Z,12.20
2023-05-13T22:36:18.952Z,12.20
2023-05-13T22:38:47.055Z,12.20
2023-05-13T22:41:15.174Z,12.20
2023-05-13T22:43:43.410Z,12.20
2023-05-13T22:46:13.012Z,12.20
2023-05-13T22:48:41.183Z,12.20
2023-05-13T22:51:09.320Z,12.20
2023-05-13T22:53:37.497Z,12.20
2023-05-13T22:56:07.402Z,12.10
2023-05-13T22:58:35.688Z,12.10
2023-05-13T23:01:04.032Z,12.10
2023-05-13T23:03:33.604Z,12.10
2023-05-13T23:06:01.732Z,12.20
2023-05-13T23:08:29.886Z,12.20
2023-05-13T23:10:58.062Z,12.20
2023-05-13T23:13:26.467Z,12.20
2023-05-13T23:15:54.668Z,12.20
2023-05-13T23:18:22.916Z,12.10
2023-05-13T23:20:55.641Z,12.00
2023-05-13T23:23:24.091Z,11.90
2023-05-13T23:25:52.538Z,11.90
2023-05-13T23:28:20.742Z,11.90
2023-05-13T23:30:48.923Z,12.00
2023-05-13T23:33:17.073Z,12.00
2023-05-13T23:35:45.251Z,12.00
2023-05-13T23:38:14.759Z,12.10
2023-05-13T23:40:42.872Z,12.10
2023-05-13T23:43:11.009Z,12.10
2023-05-13T23:45:39.177Z,12.10
2023-05-13T23:48:07.635Z,12.00
2023-05-13T23:50:36.194Z,12.00
2023-05-13T23:53:04.435Z,12.00
2023-05-13T23:55:34.185Z,12.00
2023-05-13T23:58:02.333Z,12.10
